createdAt,value
2022-11-27T00:04:55.000Z,101.54
2022-11-27T00:09:55.000Z,101.54
2022-11-27T00:14:55.000Z,101.54
2022-11-27T00:19:55.000Z,101.51
2022-11-27T00:24:55.000Z,101.48
2022-11-27T00:29:55.000Z,101.51
2022-11-27T00:34:55.000Z,101.51
2022-11-27T00:39:55.000Z,101.51
2022-11-27T00:44:56.000Z,101.56
2022-11-27T00:49:55.000Z,101.48
2022-11-27T00:54:55.000Z,101.51
2022-11-27T00:59:55.000Z,101.51
2022-11-27T01:04:55.000Z,101.51
2022-11-27T01:09:55.000Z,101.54
2022-11-27T01:14:55.000Z,101.51
2022-11-27T01:19:55.000Z,101.51
2022-11-27T01:24:55.000Z,101.48
2022-11-27T01:29:55.000Z,101.44
2022-11-27T01:34:55.000Z,101.44
2022-11-27T01:39:55.000Z,101.50
2022-11-27T01:44:55.000Z,101.48
2022-11-27T01:49:55.000Z,101.48
2022-11-27T01:54:55.000Z,101.48
2022-11-27T01:59:55.000Z,101.50
2022-11-27T02:04:56.000Z,101.53
2022-11-27T02:09:55.000Z,101.53
2022-11-27T02:14:55.000Z,101.53
2022-11-27T02:19:55.000Z,101.53
2022-11-27T02:24:55.000Z,101.53
2022-11-27T02:29:55.000Z,101.55
2022-11-27T02:34:55.000Z,101.58
2022-11-27T02:39:55.000Z,101.55
2022-11-27T02:44:55.000Z,101.53
2022-11-27T02:49:55.000Z,101.58
2022-11-27T02:54:55.000Z,101.55
2022-11-27T02:59:55.000Z,101.55
2022-11-27T03:04:55.000Z,101.55
2022-11-27T03:09:55.000Z,101.55
2022-11-27T03:14:55.000Z,101.53
2022-11-27T03:19:55.000Z,101.54
2022-11-27T03:24:55.000Z,101.54
2022-11-27T03:29:55.000Z,101.56
2022-11-27T03:34:55.000Z,101.56
2022-11-27T03:39:55.000Z,101.56
2022-11-27T03:44:56.000Z,101.54
2022-11-27T03:49:55.000Z,101.54
2022-11-27T03:54:55.000Z,101.54
2022-11-27T03:59:56.000Z,101.56
2022-11-27T04:04:55.000Z,101.56
2022-11-27T04:09:55.000Z,101.56
2022-11-27T04:14:55.000Z,101.59
2022-11-27T04:19:55.000Z,101.59
2022-11-27T04:24:55.000Z,101.59
2022-11-27T04:29:55.000Z,101.62
2022-11-27T04:34:55.000Z,101.59
2022-11-27T04:39:55.000Z,101.62
2022-11-27T04:44:55.000Z,101.62
2022-11-27T04:49:55.000Z,101.57
2022-11-27T04:54:55.000Z,101.62
2022-11-27T04:59:56.000Z,101.59
2022-11-27T05:04:56.000Z,101.59
2022-11-27T05:09:55.000Z,101.59
2022-11-27T05:14:56.000Z,101.58
2022-11-27T05:19:56.000Z,101.54
2022-11-27T05:24:56.000Z,101.58
2022-11-27T05:29:56.000Z,101.58
2022-11-27T05:34:56.000Z,101.58
2022-11-27T05:39:55.000Z,101.58
2022-11-27T05:44:55.000Z,101.58
2022-11-27T05:49:55.000Z,101.56
2022-11-27T05:54:56.000Z,101.56
2022-11-27T05:59:56.000Z,101.54
2022-11-27T06:04:56.000Z,101.58
2022-11-27T06:09:56.000Z,101.56
2022-11-27T06:14:56.000Z,101.59
2022-11-27T06:19:56.000Z,101.57
2022-11-27T06:24:56.000Z,101.62
2022-11-27T06:29:56.000Z,101.60
2022-11-27T06:34:56.000Z,101.57
2022-11-27T06:39:56.000Z,101.63
2022-11-27T06:44:56.000Z,101.65
2022-11-27T06:49:56.000Z,101.63
2022-11-27T06:54:56.000Z,101.63
2022-11-27T06:59:56.000Z,101.69
2022-11-27T07:04:56.000Z,101.72
2022-11-27T07:09:56.000Z,101.72
2022-11-27T07:14:56.000Z,101.72
2022-11-27T07:19:56.000Z,101.77
2022-11-27T07:24:56.000Z,101.74
2022-11-27T07:29:56.000Z,101.77
2022-11-27T07:34:56.000Z,101.72
2022-11-27T07:39:56.000Z,101.77
2022-11-27T07:44:56.000Z,101.80
2022-11-27T07:49:56.000Z,101.80
2022-11-27T07:54:56.000Z,101.77
2022-11-27T07:59:56.000Z,101.77
2022-11-27T08:04:56.000Z,101.74
2022-11-27T08:09:56.000Z,101.77
2022-11-27T08:14:56.000Z,101.80
2022-11-27T08:19:56.000Z,101.80
2022-11-27T08:24:56.000Z,101.85
2022-11-27T08:29:56.000Z,101.76
2022-11-27T08:34:56.000Z,101.78
2022-11-27T08:39:56.000Z,101.77
2022-11-27T08:44:56.000Z,101.75
2022-11-27T08:49:56.000Z,101.72
2022-11-27T08:54:56.000Z,101.69
2022-11-27T08:59:56.000Z,101.66
2022-11-27T09:04:56.000Z,101.63
2022-11-27T09:09:56.000Z,101.66
2022-11-27T09:14:56.000Z,101.66
2022-11-27T09:19:56.000Z,101.57
2022-11-27T09:24:56.000Z,101.48
2022-11-27T09:29:56.000Z,101.51
2022-11-27T09:34:56.000Z,101.50
2022-11-27T09:39:56.000Z,101.44
2022-11-27T09:44:56.000Z,101.40
2022-11-27T09:49:56.000Z,101.45
2022-11-27T09:54:56.000Z,101.33
2022-11-27T09:59:56.000Z,101.32
2022-11-27T10:04:56.000Z,101.06
2022-11-27T10:09:56.000Z,100.53
2022-11-27T10:14:56.000Z,99.24
2022-11-27T10:19:56.000Z,97.75
2022-11-27T10:24:56.000Z,98.48
2022-11-27T10:29:56.000Z,98.51
2022-11-27T10:34:56.000Z,98.09
2022-11-27T10:39:56.000Z,97.06
2022-11-27T10:44:56.000Z,96.93
2022-11-27T10:49:56.000Z,96.96
2022-11-27T10:54:56.000Z,97.12
2022-11-27T10:59:56.000Z,95.45
2022-11-27T11:04:56.000Z,94.86
2022-11-27T11:09:56.000Z,94.86
2022-11-27T11:14:56.000Z,95.09
2022-11-27T11:19:56.000Z,94.53
2022-11-27T11:24:56.000Z,94.33
2022-11-27T11:29:56.000Z,94.98
2022-11-27T11:34:56.000Z,95.12
2022-11-27T11:39:56.000Z,94.36
2022-11-27T11:44:56.000Z,94.62
2022-11-27T11:49:56.000Z,94.48
2022-11-27T11:54:56.000Z,94.96
2022-11-27T11:59:56.000Z,95.40
2022-11-27T12:05:01.000Z,95.26
2022-11-27T12:09:56.000Z,95.29
2022-11-27T12:14:56.000Z,95.65
2022-11-27T12:19:56.000Z,95.72
2022-11-27T12:24:56.000Z,95.65
2022-11-27T12:29:56.000Z,95.63
2022-11-27T12:34:56.000Z,95.60
2022-11-27T12:39:56.000Z,95.65
2022-11-27T12:44:56.000Z,95.42
2022-11-27T12:49:56.000Z,95.24
2022-11-27T12:54:56.000Z,95.57
2022-11-27T12:59:56.000Z,96.00
2022-11-27T13:04:56.000Z,95.88
2022-11-27T13:09:56.000Z,95.59
2022-11-27T13:14:56.000Z,95.38
2022-11-27T13:19:56.000Z,95.82
2022-11-27T13:24:56.000Z,96.97
2022-11-27T13:29:56.000Z,96.33
2022-11-27T13:34:56.000Z,96.10
2022-11-27T13:39:56.000Z,95.83
2022-11-27T13:44:56.000Z,95.88
2022-11-27T13:49:56.000Z,96.20
2022-11-27T13:54:56.000Z,96.37
2022-11-27T13:59:56.000Z,96.40
2022-11-27T14:04:56.000Z,96.09
2022-11-27T14:09:56.000Z,95.91
2022-11-27T14:14:56.000Z,97.00
2022-11-27T14:19:56.000Z,97.16
2022-11-27T14:24:56.000Z,97.03
2022-11-27T14:29:56.000Z,97.78
2022-11-27T14:34:56.000Z,98.59
2022-11-27T14:39:56.000Z,98.34
2022-11-27T14:44:56.000Z,98.45
2022-11-27T14:49:56.000Z,99.01
2022-11-27T14:54:56.000Z,99.26
2022-11-27T14:59:56.000Z,99.35
2022-11-27T15:04:56.000Z,99.22
2022-11-27T15:09:56.000Z,99.52
2022-11-27T15:14:56.000Z,99.41
2022-11-27T15:19:56.000Z,99.24
2022-11-27T15:24:56.000Z,99.53
2022-11-27T15:29:56.000Z,99.59
2022-11-27T15:34:56.000Z,99.15
2022-11-27T15:39:56.000Z,99.64
2022-11-27T15:44:56.000Z,100.00
2022-11-27T15:49:56.000Z,99.59
2022-11-27T15:54:56.000Z,99.68
2022-11-27T15:59:56.000Z,100.03
2022-11-27T16:04:56.000Z,100.13
2022-11-27T16:09:56.000Z,100.07
2022-11-27T16:14:56.000Z,99.90
2022-11-27T16:19:56.000Z,100.13
2022-11-27T16:24:56.000Z,99.93
2022-11-27T16:29:56.000Z,100.35
2022-11-27T16:34:56.000Z,100.43
2022-11-27T16:39:56.000Z,100.70
2022-11-27T16:44:56.000Z,100.72
2022-11-27T16:49:56.000Z,100.56
2022-11-27T16:54:56.000Z,100.64
2022-11-27T16:59:56.000Z,100.74
2022-11-27T17:04:56.000Z,100.61
2022-11-27T17:09:56.000Z,100.70
2022-11-27T17:14:56.000Z,100.70
2022-11-27T17:19:56.000Z,100.58
2022-11-27T17:24:56.000Z,100.74
2022-11-27T17:29:56.000Z,100.85
2022-11-27T17:34:56.000Z,100.68
2022-11-27T17:39:56.000Z,100.71
2022-11-27T17:44:56.000Z,101.00
2022-11-27T17:49:56.000Z,101.03
2022-11-27T17:54:56.000Z,101.21
2022-11-27T17:59:56.000Z,101.21
2022-11-27T18:04:56.000Z,101.33
2022-11-27T18:09:56.000Z,101.41
2022-11-27T18:14:56.000Z,101.42
2022-11-27T18:19:56.000Z,101.42
2022-11-27T18:24:56.000Z,101.42
2022-11-27T18:29:56.000Z,101.39
2022-11-27T18:34:56.000Z,101.39
2022-11-27T18:39:56.000Z,101.44
2022-11-27T18:44:56.000Z,101.44
2022-11-27T18:49:56.000Z,101.41
2022-11-27T18:54:56.000Z,101.44
2022-11-27T18:59:56.000Z,101.39
2022-11-27T19:04:56.000Z,101.42
2022-11-27T19:09:56.000Z,101.48
2022-11-27T19:15:00.000Z,101.51
2022-11-27T19:20:00.000Z,101.51
2022-11-27T19:25:00.000Z,101.45
2022-11-27T19:30:00.000Z,101.48
2022-11-27T19:35:00.000Z,101.45
2022-11-27T19:40:00.000Z,101.48
2022-11-27T19:45:00.000Z,101.45
2022-11-27T19:50:01.000Z,101.45
2022-11-27T19:55:00.000Z,101.45
2022-11-27T20:00:01.000Z,101.45
2022-11-27T20:05:00.000Z,101.39
2022-11-27T20:10:00.000Z,101.42
2022-11-27T20:15:00.000Z,101.45
2022-11-27T20:20:00.000Z,101.46
2022-11-27T20:25:00.000Z,101.46
2022-11-27T20:30:00.000Z,101.51
2022-11-27T20:35:00.000Z,101.49
2022-11-27T20:40:00.000Z,101.49
2022-11-27T20:45:00.000Z,101.49
2022-11-27T20:50:00.000Z,101.49
2022-11-27T20:55:00.000Z,101.49
2022-11-27T21:00:00.000Z,101.49
2022-11-27T21:05:00.000Z,101.51
2022-11-27T21:10:00.000Z,101.51
2022-11-27T21:15:00.000Z,101.49
2022-11-27T21:20:00.000Z,101.49
2022-11-27T21:25:00.000Z,101.49
2022-11-27T21:30:00.000Z,101.49
2022-11-27T21:35:00.000Z,101.51
2022-11-27T21:40:00.000Z,101.49
2022-11-27T21:45:00.000Z,101.49
2022-11-27T21:50:00.000Z,101.49
2022-11-27T21:55:00.000Z,101.55
2022-11-27T22:00:01.000Z,101.55
2022-11-27T22:05:00.000Z,101.55
2022-11-27T22:10:00.000Z,101.57
2022-11-27T22:15:00.000Z,101.60
2022-11-27T22:20:00.000Z,101.60
2022-11-27T22:25:00.000Z,101.57
2022-11-27T22:30:00.000Z,101.57
2022-11-27T22:35:00.000Z,101.57
2022-11-27T22:40:00.000Z,101.54
2022-11-27T22:45:00.000Z,101.57
2022-11-27T22:50:00.000Z,101.57
2022-11-27T22:55:00.000Z,101.54
2022-11-27T23:00:01.000Z,101.51
2022-11-27T23:05:00.000Z,101.54
2022-11-27T23:08:45.000Z,101.54
2022-11-27T23:08:45.000Z,101.54
2022-11-27T23:08:45.000Z,101.54
2022-11-27T23:08:45.000Z,101.54
2022-11-27T23:08:45.000Z,101.54
2022-11-27T23:08:45.000Z,101.54
2022-11-27T23:08:45.000Z,101.54
2022-11-27T23:08:45.000Z,101.54
2022-11-27T23:08:45.000Z,101.54
2022-11-27T23:08:45.000Z,101.54
2022-11-27T23:08:45.000Z,101.54
2022-11-27T23:08:45.000Z,101.54
2022-11-27T23:08:45.000Z,101.54
2022-11-27T23:08:45.000Z,101.54
2022-11-27T23:08:45.000Z,101.54
2022-11-27T23:08:45.000Z,101.54
2022-11-27T23:08:45.000Z,101.54
2022-11-27T23:08:45.000Z,101.54
2022-11-27T23:08:45.000Z,101.54
2022-11-27T23:08:45.000Z,101.54
2022-11-27T23:08:45.000Z,101.54
2022-11-27T23:08:45.000Z,101.54
2022-11-27T23:08:45.000Z,101.54
2022-11-27T23:08:45.000Z,101.54
2022-11-27T23:08:45.000Z,101.54
2022-11-27T23:08:45.000Z,101.54
2022-11-27T23:08:45.000Z,101.54
2022-11-27T23:08:45.000Z,101.54
2022-11-27T23:08:45.000Z,101.54
2022-11-27T23:08:45.000Z,101.54
2022-11-27T23:08:45.000Z,101.54
2022-11-27T23:08:45.000Z,101.54
2022-11-27T23:08:45.000Z,101.54
2022-11-27T23:08:45.000Z,101.54
2022-11-27T23:08:45.000Z,101.54
